Wolf Creek, Montana
Current Conditions -  °F | °C
As of 7:53 PM on Wednesday 26 Nov 2014 (Local Time) from KHLN Reporting Station
Clear Clear  
Wind Chill: 22°   Ceiling: Unl
Heat Index: 27°   Visibility: 9mi
Dew Point: 26°   Wind: 5mph
Humidity: 96%   Direction: 270°W
Pressure: 30.1"   Gusts: NA
Location:  47°N, 112.08°W
Report Text: KHLN 270253Z 27004KT 9SM CLR M03/M03 A3010 RMK AO2 SLP247 T10281033 58006
Loading
Personal Weather Stations






























Interactive Weather Map New forecast layout! Learn more

10-Day Weather Forecast

Advertisements
Track Severe Weather on mobile